Wilson, WY

3:19 PM MDT on September 22, 2014 (GMT -0600)
MesoWest PHILLIPS BENCH WY US SNOTEL | Change Station
CLOSE
Current Station
Personal Weather Station
Location: Wilson, WY
Elevation: 8200 ft
Nearby Weather Stations

Elev 8200 ft 43.52 °N, 110.91 °W | Updated 23 hours ago

Thunderstorm
Thunderstorm
57 °F
Feels Like 57 °F
N
9
Wind Variable Wind from WSW
Gusts 15 mph

Today
High -- | Low -- °F
--% Chance of Precip.
Yesterday
High -- | Low -- °F
Precip. -- in
7:10 AM 7:20 PM
Waning Crescent, 2% visible
Pressure 30.21 in
Visibility 10.0 miles
Clouds Scattered Clouds 5000 ft
Overcast 7000 ft
Dew Point 48 °F
Humidity 67%
Rainfall 0.00 in
Snow Depth 0 in , 0 in , 0 in
UV 2 out of 12
Pollen 5.30 out of 12
Air Quality Not available.
Flu Activity Not available.
METAR KJAC 222051Z 16009KT 10SM VCSH SCT050 OVC070 14/11 A3021

More Conditions Fewer Conditions

Pressure 30.21 in
Visibility 10.0 miles
Clouds Scattered Clouds 5000 ft
Overcast 7000 ft
Dew Point 48 °F
Humidity 67%
Rainfall 0.00 in
Snow Depth 0 in , 0 in , 0 in
UV 2 out of 12
Pollen 5.30 out of 12
Air Quality Not available.
Flu Activity Not available.
METAR KJAC 222051Z 16009KT 10SM VCSH SCT050 OVC070 14/11 A3021

More Conditions Fewer Conditions

10-Day Weather Forecast

Almanac

Astronomy

Sep. 22, 2014 Rise Set
Actual Time 7:10 AM MDT 7:20 PM MDT
Civil Twilight 6:42 AM MDT 7:49 PM MDT
Nautical Twilight 6:08 AM MDT 8:22 PM MDT
Astronomical Twilight 5:34 AM MDT 8:57 PM MDT
Moon 5:41 AM MDT 6:31 PM MDT
Length of Visible Light 13h 07m
Length of Day
12h 09m
Tomorrow will be 2m 57s shorter.
Waning Crescent, 2% of the Moon is Illuminated
Today
Waning Crescent
Sep 24
New
Oct 1
First Quarter
Oct 8
Full
Oct 15
Last Quarter

Today's Extremes

State Highs State Lows

Community

WunderPhotos

Upload Photos

1,755,533 photos uploaded!

Nearby

Snow Depth

Station Depth Elevation
Phillips Bench 0 in 8200 ft
Casper Mountain 0 in 7850 ft
East Rim Divide 0 in 7930 ft
Thumb Divide 0 in 7980 ft
Lewis Lake Divide 0 in 7850 ft

Earthquake Activity

City Distance Mag. Time & Date
No recent earthquake activity has been reported nearby.
Minimum magnitude displayed is 2.5.

Coastal Water Temperatures

Place Temperature
No Stations Reporting

Nearby Weather Stations